createdAt,value
2016-07-28T00:00:31.476Z,957.84
2016-07-28T00:01:22.775Z,957.82
2016-07-28T00:02:27.443Z,957.87
2016-07-28T00:03:25.115Z,957.89
2016-07-28T00:04:25.359Z,957.86
2016-07-28T00:05:26.205Z,957.89
2016-07-28T00:06:18.772Z,957.84
2016-07-28T00:07:48.635Z,957.84
2016-07-28T00:09:43.542Z,957.79
2016-07-28T00:10:35.930Z,957.80
2016-07-28T00:11:25.660Z,957.80
2016-07-28T00:12:26.410Z,957.82
2016-07-28T00:13:33.318Z,957.83
2016-07-28T00:14:26.763Z,957.83
2016-07-28T00:15:34.511Z,957.81
2016-07-28T00:16:24.751Z,957.78
2016-07-28T00:17:36.664Z,957.82
2016-07-28T00:18:22.611Z,957.82
2016-07-28T00:19:24.223Z,957.81
2016-07-28T00:20:24.422Z,957.82
2016-07-28T00:22:26.194Z,957.89
2016-07-28T00:23:22.022Z,957.89
2016-07-28T00:24:12.412Z,957.91
2016-07-28T00:25:25.619Z,957.94
2016-07-28T00:27:38.352Z,957.99
2016-07-28T00:28:28.731Z,957.97
2016-07-28T00:29:33.659Z,958.00
2016-07-28T00:30:23.669Z,958.01
2016-07-28T00:31:23.951Z,958.00
2016-07-28T00:32:34.976Z,957.96
2016-07-28T00:33:27.520Z,957.95
2016-07-28T00:34:25.703Z,957.95
2016-07-28T00:35:23.306Z,957.93
2016-07-28T00:37:24.189Z,957.90
2016-07-28T00:38:26.779Z,957.90
2016-07-28T00:39:29.048Z,957.88
2016-07-28T00:40:27.186Z,957.85
2016-07-28T00:42:24.535Z,957.84
2016-07-28T00:43:18.966Z,957.78
2016-07-28T00:44:26.801Z,957.76
2016-07-28T00:45:20.772Z,957.75
2016-07-28T00:46:24.791Z,957.74
2016-07-28T00:47:26.992Z,957.74
2016-07-28T00:48:24.890Z,957.72
2016-07-28T00:50:24.724Z,957.71
2016-07-28T00:52:24.134Z,957.75
2016-07-28T00:53:43.434Z,957.72
2016-07-28T00:54:36.143Z,957.72
2016-07-28T00:55:23.255Z,957.73
2016-07-28T00:57:25.298Z,957.77
2016-07-28T00:58:36.507Z,957.69
2016-07-28T00:59:22.774Z,957.75
2016-07-28T01:00:31.098Z,957.76
2016-07-28T01:01:22.834Z,957.72
2016-07-28T01:02:34.053Z,957.74
2016-07-28T01:03:27.458Z,957.70
2016-07-28T01:04:25.923Z,957.74
2016-07-28T01:05:23.575Z,957.71
2016-07-28T01:06:25.339Z,957.69
2016-07-28T01:07:20.933Z,957.70
2016-07-28T01:08:26.420Z,957.69
2016-07-28T01:09:25.987Z,957.70
2016-07-28T01:10:25.048Z,957.70
2016-07-28T01:11:34.210Z,957.71
2016-07-28T01:12:24.436Z,957.73
2016-07-28T01:13:20.474Z,957.70
2016-07-28T01:14:25.428Z,957.69
2016-07-28T01:15:30.021Z,957.67
2016-07-28T01:16:25.744Z,957.68
2016-07-28T01:18:19.719Z,957.65
2016-07-28T01:21:23.913Z,957.65
2016-07-28T01:23:23.171Z,957.65
2016-07-28T01:24:30.587Z,957.56
2016-07-28T01:25:23.746Z,957.62
2016-07-28T01:27:23.663Z,957.60
2016-07-28T01:28:22.434Z,957.62
2016-07-28T01:29:23.714Z,957.61
2016-07-28T01:31:25.810Z,957.55
2016-07-28T01:33:25.744Z,957.58
2016-07-28T01:34:28.046Z,957.62
2016-07-28T01:35:32.287Z,957.56
2016-07-28T01:36:36.650Z,957.56
2016-07-28T01:37:22.963Z,957.60
2016-07-28T01:38:32.655Z,957.58
2016-07-28T01:39:24.910Z,957.58
2016-07-28T01:40:29.671Z,957.63
2016-07-28T01:42:29.073Z,957.55
2016-07-28T01:43:33.632Z,957.55
2016-07-28T01:44:22.683Z,957.53
2016-07-28T01:45:22.759Z,957.55
2016-07-28T01:46:38.069Z,957.48
2016-07-28T01:47:24.182Z,957.50
2016-07-28T01:48:24.783Z,957.49
2016-07-28T01:49:22.165Z,957.50
2016-07-28T01:50:23.140Z,957.50
2016-07-28T01:52:22.595Z,957.57
2016-07-28T01:53:43.440Z,957.53
2016-07-28T01:54:41.265Z,957.53
2016-07-28T01:55:33.182Z,957.54
2016-07-28T01:57:19.068Z,957.47
2016-07-28T01:58:26.604Z,957.52
2016-07-28T01:59:25.420Z,957.47
2016-07-28T02:00:25.413Z,957.45
2016-07-28T02:01:21.765Z,957.52
2016-07-28T02:02:36.993Z,957.50
2016-07-28T02:03:26.121Z,957.50
2016-07-28T02:04:22.349Z,957.50
2016-07-28T02:05:24.023Z,957.48
2016-07-28T02:06:31.956Z,957.52
2016-07-28T02:07:29.195Z,957.51
2016-07-28T02:08:28.414Z,957.48
2016-07-28T02:09:37.995Z,957.50
2016-07-28T02:10:26.017Z,957.51
2016-07-28T02:11:44.458Z,957.49
2016-07-28T02:12:27.520Z,957.56
2016-07-28T02:13:36.614Z,957.52
2016-07-28T02:15:34.114Z,957.52
2016-07-28T02:16:23.850Z,957.53
2016-07-28T02:18:40.008Z,957.51
2016-07-28T02:19:35.417Z,957.51
2016-07-28T02:20:48.836Z,957.49
2016-07-28T02:21:23.863Z,957.54
2016-07-28T02:22:25.426Z,957.51
2016-07-28T02:23:22.985Z,957.54
2016-07-28T02:24:23.118Z,957.50
2016-07-28T02:25:23.107Z,957.50
2016-07-28T02:26:23.766Z,957.45
2016-07-28T02:27:33.868Z,957.51
2016-07-28T02:28:20.368Z,957.52
2016-07-28T02:29:24.660Z,957.54
2016-07-28T02:30:18.460Z,957.51
2016-07-28T02:31:43.997Z,957.52
2016-07-28T02:32:32.292Z,957.52
2016-07-28T02:34:29.111Z,957.52
2016-07-28T02:35:29.332Z,957.49
2016-07-28T02:36:39.095Z,957.54
2016-07-28T02:37:28.483Z,957.52
2016-07-28T02:38:28.669Z,957.52
2016-07-28T02:39:34.988Z,957.52
2016-07-28T02:40:23.052Z,957.54
2016-07-28T02:42:39.143Z,957.48
2016-07-28T02:43:27.609Z,957.50
2016-07-28T02:44:22.771Z,957.50
2016-07-28T02:45:43.451Z,957.49
2016-07-28T02:46:27.516Z,957.46
2016-07-28T02:47:19.441Z,957.46
2016-07-28T02:48:27.610Z,957.46
2016-07-28T02:49:28.850Z,957.47
2016-07-28T02:50:23.373Z,957.50
2016-07-28T02:51:31.929Z,957.50
2016-07-28T02:52:29.257Z,957.50
2016-07-28T02:53:28.264Z,957.56
2016-07-28T02:54:37.994Z,957.52
2016-07-28T02:55:27.634Z,957.52
2016-07-28T02:56:26.841Z,957.54
2016-07-28T02:57:30.352Z,957.50
2016-07-28T02:58:17.614Z,957.51
2016-07-28T02:59:49.305Z,957.51
2016-07-28T03:00:22.464Z,957.54
2016-07-28T03:01:27.567Z,957.56
2016-07-28T03:02:20.035Z,957.54
2016-07-28T03:03:28.486Z,957.54
2016-07-28T03:04:24.294Z,957.51
2016-07-28T03:05:23.423Z,957.52
2016-07-28T03:07:30.562Z,957.48
2016-07-28T03:08:26.301Z,957.47
2016-07-28T03:09:22.802Z,957.54
2016-07-28T03:10:28.656Z,957.53
2016-07-28T03:12:35.334Z,957.57
2016-07-28T03:13:23.043Z,957.57
2016-07-28T03:14:33.963Z,957.58
2016-07-28T03:15:27.355Z,957.60
2016-07-28T03:16:35.137Z,957.59
2016-07-28T03:17:29.228Z,957.59
2016-07-28T03:18:36.349Z,957.57
2016-07-28T03:19:22.872Z,957.60
2016-07-28T03:20:25.727Z,957.62
2016-07-28T03:21:26.350Z,957.56
2016-07-28T03:22:34.998Z,957.61
2016-07-28T03:23:29.936Z,957.53
2016-07-28T03:24:27.985Z,957.55
2016-07-28T03:25:24.114Z,957.55
2016-07-28T03:26:33.051Z,957.52
2016-07-28T03:27:39.325Z,957.55
2016-07-28T03:28:33.088Z,957.52
2016-07-28T03:30:23.528Z,957.51
2016-07-28T03:33:18.825Z,957.54
2016-07-28T03:34:37.627Z,957.57
2016-07-28T03:35:33.643Z,957.51
2016-07-28T03:36:27.665Z,957.53
2016-07-28T03:37:27.482Z,957.49
2016-07-28T03:38:26.657Z,957.51
2016-07-28T03:39:23.591Z,957.49
2016-07-28T03:40:24.859Z,957.46
2016-07-28T03:41:28.924Z,957.51
2016-07-28T03:42:24.648Z,957.47
2016-07-28T03:43:25.604Z,957.45
2016-07-28T03:44:24.756Z,957.44
2016-07-28T03:45:24.767Z,957.49
2016-07-28T03:46:23.393Z,957.45
2016-07-28T03:47:19.845Z,957.50
2016-07-28T03:48:26.389Z,957.52
2016-07-28T03:49:38.638Z,957.46
2016-07-28T03:50:33.024Z,957.44
2016-07-28T03:51:22.878Z,957.45
2016-07-28T03:52:24.476Z,957.47
2016-07-28T03:53:35.755Z,957.40
2016-07-28T03:54:28.005Z,957.45
2016-07-28T03:55:24.369Z,957.45
2016-07-28T03:56:24.450Z,957.40
2016-07-28T03:57:23.764Z,957.46
2016-07-28T03:58:33.848Z,957.43
2016-07-28T03:59:25.361Z,957.45
2016-07-28T04:00:31.058Z,957.41
2016-07-28T04:01:24.404Z,957.49
2016-07-28T04:02:27.323Z,957.47
2016-07-28T04:03:30.559Z,957.45
2016-07-28T04:04:17.887Z,957.46
2016-07-28T04:05:18.608Z,957.43
2016-07-28T04:06:22.577Z,957.43
2016-07-28T04:07:31.890Z,957.38
2016-07-28T04:08:17.852Z,957.42
2016-07-28T04:09:25.329Z,957.41
2016-07-28T04:10:17.654Z,957.41
2016-07-28T04:11:20.657Z,957.40
2016-07-28T04:12:26.021Z,957.38
2016-07-28T04:13:17.651Z,957.40
2016-07-28T04:14:16.996Z,957.42
2016-07-28T04:15:23.047Z,957.35
2016-07-28T04:16:17.332Z,957.39
2016-07-28T04:17:24.507Z,957.36
2016-07-28T04:19:17.879Z,957.36
2016-07-28T04:20:22.894Z,957.30
2016-07-28T04:21:23.808Z,957.37
2016-07-28T04:22:29.981Z,957.33
2016-07-28T04:23:17.745Z,957.35
2016-07-28T04:24:22.696Z,957.28
2016-07-28T04:25:30.257Z,957.27
2016-07-28T04:26:17.623Z,957.29
2016-07-28T04:27:27.954Z,957.29
2016-07-28T04:28:31.502Z,957.31
2016-07-28T04:29:29.875Z,957.29
2016-07-28T04:30:23.155Z,957.36
2016-07-28T04:31:29.058Z,957.39
2016-07-28T04:32:17.690Z,957.45
2016-07-28T04:33:23.515Z,957.38
2016-07-28T04:34:18.187Z,957.37
2016-07-28T04:35:22.915Z,957.36
2016-07-28T04:36:25.085Z,957.38
2016-07-28T04:37:16.932Z,957.38
2016-07-28T04:38:30.308Z,957.35
2016-07-28T04:39:28.798Z,957.39
2016-07-28T04:40:23.796Z,957.38
2016-07-28T04:41:23.705Z,957.37
2016-07-28T04:42:33.464Z,957.40
2016-07-28T04:43:26.445Z,957.38
2016-07-28T04:44:26.978Z,957.35
2016-07-28T04:45:17.929Z,957.40
2016-07-28T04:46:17.118Z,957.40
2016-07-28T04:47:23.914Z,957.37
2016-07-28T04:48:14.047Z,957.39
2016-07-28T04:49:18.677Z,957.36
2016-07-28T04:50:23.346Z,957.36
2016-07-28T04:51:17.966Z,957.39
2016-07-28T04:53:29.083Z,957.38
2016-07-28T04:54:18.825Z,957.37
2016-07-28T04:55:23.246Z,957.41
2016-07-28T04:56:18.776Z,957.42
2016-07-28T04:58:19.418Z,957.44
2016-07-28T04:59:17.774Z,957.43
2016-07-28T05:00:17.666Z,957.46
2016-07-28T05:01:18.088Z,957.44
2016-07-28T05:02:22.884Z,957.43
2016-07-28T05:03:23.047Z,957.40
2016-07-28T05:04:17.168Z,957.41
2016-07-28T05:05:17.449Z,957.40
2016-07-28T05:06:32.523Z,957.40
2016-07-28T05:07:17.350Z,957.41
2016-07-28T05:08:23.198Z,957.42
2016-07-28T05:09:25.272Z,957.41
2016-07-28T05:10:18.620Z,957.43
2016-07-28T05:11:21.011Z,957.47
2016-07-28T05:13:18.087Z,957.45
2016-07-28T05:14:17.919Z,957.49
2016-07-28T05:15:30.740Z,957.48
2016-07-28T05:16:24.325Z,957.51
2016-07-28T05:17:17.647Z,957.52
2016-07-28T05:18:17.478Z,957.53
2016-07-28T05:19:24.478Z,957.52
2016-07-28T05:20:23.446Z,957.53
2016-07-28T05:21:25.763Z,957.53
2016-07-28T05:22:27.530Z,957.55
2016-07-28T05:23:18.286Z,957.54
2016-07-28T05:24:23.034Z,957.61
2016-07-28T05:25:17.107Z,957.57
2016-07-28T05:26:18.563Z,957.56
2016-07-28T05:27:17.998Z,957.56
2016-07-28T05:28:28.795Z,957.57
2016-07-28T05:29:18.026Z,957.60
2016-07-28T05:31:23.586Z,957.63
2016-07-28T05:32:29.416Z,957.60
2016-07-28T05:33:23.648Z,957.63
2016-07-28T05:34:25.288Z,957.60
2016-07-28T05:36:24.201Z,957.58
2016-07-28T05:37:24.728Z,957.57
2016-07-28T05:38:53.194Z,957.58
2016-07-28T05:39:25.255Z,957.57
2016-07-28T05:40:33.229Z,957.56
2016-07-28T05:41:30.777Z,957.52
2016-07-28T05:43:18.400Z,957.55
2016-07-28T05:44:26.699Z,957.52
2016-07-28T05:45:25.866Z,957.56
2016-07-28T05:46:17.899Z,957.55
2016-07-28T05:47:22.766Z,957.55
2016-07-28T05:48:26.601Z,957.56
2016-07-28T05:49:23.606Z,957.61
2016-07-28T05:51:30.642Z,957.57
2016-07-28T05:52:29.872Z,957.61
2016-07-28T05:53:35.260Z,957.57
2016-07-28T05:54:18.304Z,957.58
2016-07-28T05:55:25.007Z,957.54
2016-07-28T05:56:17.020Z,957.60
2016-07-28T05:57:24.476Z,957.57
2016-07-28T05:58:28.973Z,957.59
2016-07-28T05:59:18.148Z,957.59
2016-07-28T06:00:17.255Z,957.58
2016-07-28T06:02:24.305Z,957.62
2016-07-28T06:03:35.502Z,957.62
2016-07-28T06:04:22.444Z,957.62
2016-07-28T06:05:31.888Z,957.60
2016-07-28T06:06:48.675Z,957.55
2016-07-28T06:07:36.116Z,957.55
2016-07-28T06:08:18.856Z,957.53
2016-07-28T06:09:18.124Z,957.61
2016-07-28T06:10:23.998Z,957.57
2016-07-28T06:12:27.736Z,957.64
2016-07-28T06:13:23.176Z,957.61
2016-07-28T06:15:27.375Z,957.62
2016-07-28T06:16:56.011Z,957.62
2016-07-28T06:17:23.400Z,957.62
2016-07-28T06:18:29.116Z,957.66
2016-07-28T06:19:30.727Z,957.63
2016-07-28T06:20:22.560Z,957.66
2016-07-28T06:21:18.677Z,957.63
2016-07-28T06:22:43.607Z,957.65
2016-07-28T06:23:26.320Z,957.70
2016-07-28T06:24:25.086Z,957.70
2016-07-28T06:25:17.623Z,957.73
2016-07-28T06:26:18.556Z,957.71
2016-07-28T06:27:17.772Z,957.71
2016-07-28T06:28:24.586Z,957.72
2016-07-28T06:29:18.600Z,957.76
2016-07-28T06:30:43.657Z,957.75
2016-07-28T06:32:48.408Z,957.74
2016-07-28T06:33:29.302Z,957.76
2016-07-28T06:34:23.074Z,957.73
2016-07-28T06:35:23.075Z,957.73
2016-07-28T06:36:29.320Z,957.70
2016-07-28T06:37:18.809Z,957.71
2016-07-28T06:38:28.631Z,957.72
2016-07-28T06:39:33.345Z,957.79
2016-07-28T06:40:25.389Z,957.78
2016-07-28T06:41:19.478Z,957.81
2016-07-28T06:42:25.897Z,957.78
2016-07-28T06:43:19.935Z,957.81
2016-07-28T06:45:36.492Z,957.79
2016-07-28T06:46:24.105Z,957.78
2016-07-28T06:47:26.256Z,957.75
2016-07-28T06:48:29.227Z,957.79
2016-07-28T06:49:42.643Z,957.77
2016-07-28T06:50:25.264Z,957.72
2016-07-28T06:51:29.983Z,957.76
2016-07-28T06:52:39.084Z,957.75
2016-07-28T06:53:31.519Z,957.76
2016-07-28T06:54:16.758Z,957.72
2016-07-28T06:55:23.404Z,957.69
2016-07-28T06:56:21.500Z,957.71
2016-07-28T06:57:18.778Z,957.70
2016-07-28T06:58:18.551Z,957.72
2016-07-28T06:59:17.904Z,957.73
2016-07-28T07:00:23.264Z,957.74
2016-07-28T07:01:17.030Z,957.75
2016-07-28T07:02:12.636Z,957.73
2016-07-28T07:03:18.715Z,957.72
2016-07-28T07:04:27.088Z,957.76
2016-07-28T07:05:23.087Z,957.74
2016-07-28T07:06:37.546Z,957.73
2016-07-28T07:07:23.270Z,957.73
2016-07-28T07:08:17.132Z,957.75
2016-07-28T07:09:25.235Z,957.72
2016-07-28T07:10:17.801Z,957.76
2016-07-28T07:11:17.746Z,957.76
2016-07-28T07:12:21.977Z,957.78
2016-07-28T07:13:31.995Z,957.80
2016-07-28T07:14:23.411Z,957.79
2016-07-28T07:15:25.014Z,957.78
2016-07-28T07:16:23.485Z,957.80
2016-07-28T07:18:23.432Z,957.78
2016-07-28T07:19:32.198Z,957.80
2016-07-28T07:20:18.559Z,957.78
2016-07-28T07:21:25.645Z,957.79
2016-07-28T07:22:42.354Z,957.78
2016-07-28T07:25:24.456Z,957.73
2016-07-28T07:26:24.415Z,957.71
2016-07-28T07:30:28.706Z,957.76
2016-07-28T07:31:23.803Z,957.75
2016-07-28T07:32:35.374Z,957.76
2016-07-28T07:34:20.685Z,957.72
2016-07-28T07:36:42.095Z,957.73
2016-07-28T07:37:28.084Z,957.73
2016-07-28T07:38:31.091Z,957.76
2016-07-28T07:40:17.544Z,957.72
2016-07-28T07:41:25.807Z,957.73
2016-07-28T07:42:19.209Z,957.71
2016-07-28T07:43:40.752Z,957.73
2016-07-28T07:45:28.372Z,957.74
2016-07-28T07:58:28.454Z,957.73
2016-07-28T07:59:24.422Z,957.74
2016-07-28T08:00:19.870Z,957.78
2016-07-28T08:01:27.832Z,957.76
2016-07-28T08:02:19.943Z,957.76
2016-07-28T08:03:15.686Z,957.76
2016-07-28T08:04:21.805Z,957.74
2016-07-28T08:05:38.848Z,957.71
2016-07-28T08:07:26.923Z,957.75
2016-07-28T08:08:21.105Z,957.70
2016-07-28T08:09:21.022Z,957.71
2016-07-28T08:10:17.030Z,957.73
2016-07-28T08:11:18.404Z,957.70
2016-07-28T08:12:18.325Z,957.69
2016-07-28T08:13:17.694Z,957.68
2016-07-28T08:14:22.241Z,957.71
2016-07-28T08:15:18.785Z,957.67
2016-07-28T08:16:30.002Z,957.67
2016-07-28T08:17:31.541Z,957.64
2016-07-28T08:18:21.496Z,957.67
2016-07-28T08:19:17.987Z,957.65
2016-07-28T08:20:17.504Z,957.68
2016-07-28T08:21:16.986Z,957.66
2016-07-28T08:22:31.076Z,957.66
2016-07-28T08:23:22.375Z,957.71
2016-07-28T08:24:15.385Z,957.65
2016-07-28T08:25:30.646Z,957.68
2016-07-28T08:26:22.362Z,957.62
2016-07-28T08:27:19.259Z,957.65
2016-07-28T08:28:27.816Z,957.65
2016-07-28T08:29:28.846Z,957.65
2016-07-28T08:30:17.165Z,957.65
2016-07-28T08:31:24.404Z,957.65
2016-07-28T08:32:24.965Z,957.61
2016-07-28T08:33:28.329Z,957.61
2016-07-28T08:34:17.538Z,957.61
2016-07-28T08:35:30.893Z,957.59
2016-07-28T08:36:26.217Z,957.58
2016-07-28T08:37:17.922Z,957.61
2016-07-28T08:38:23.900Z,957.62
2016-07-28T08:39:24.062Z,957.60
2016-07-28T08:40:22.583Z,957.61
2016-07-28T08:41:17.988Z,957.61
2016-07-28T08:42:17.986Z,957.62
2016-07-28T08:44:22.044Z,957.60
2016-07-28T08:45:35.989Z,957.61
2016-07-28T08:46:25.154Z,957.60
2016-07-28T08:47:18.827Z,957.57
2016-07-28T08:48:18.543Z,957.57
2016-07-28T08:49:17.832Z,957.58
2016-07-28T08:50:13.268Z,957.59
2016-07-28T08:51:31.993Z,957.58
2016-07-28T08:52:23.258Z,957.59
2016-07-28T08:53:17.680Z,957.54
2016-07-28T08:54:23.319Z,957.53
2016-07-28T08:55:26.858Z,957.56
2016-07-28T08:56:28.134Z,957.59
2016-07-28T08:57:33.207Z,957.54
2016-07-28T08:59:17.510Z,957.56
2016-07-28T09:00:18.300Z,957.57
2016-07-28T09:02:34.075Z,957.55
2016-07-28T09:03:19.959Z,957.52
2016-07-28T09:04:24.246Z,957.55
2016-07-28T09:05:33.701Z,957.62
2016-07-28T09:06:18.173Z,957.58
2016-07-28T09:07:22.627Z,957.56
2016-07-28T09:08:17.112Z,957.59
2016-07-28T09:09:19.956Z,957.55
2016-07-28T09:10:23.220Z,957.58
2016-07-28T09:11:25.884Z,957.59
2016-07-28T09:12:17.312Z,957.59
2016-07-28T09:14:23.748Z,957.57
2016-07-28T09:15:18.410Z,957.62
2016-07-28T09:16:23.298Z,957.57
2016-07-28T09:17:32.413Z,957.58
2016-07-28T09:18:18.664Z,957.61
2016-07-28T09:19:14.573Z,957.60
2016-07-28T09:20:22.245Z,957.61
2016-07-28T09:21:15.099Z,957.62
2016-07-28T09:22:21.940Z,957.58
2016-07-28T09:23:19.678Z,957.58
2016-07-28T09:24:17.459Z,957.57
2016-07-28T09:25:33.170Z,957.58
2016-07-28T09:26:18.498Z,957.52
2016-07-28T09:27:17.687Z,957.55
2016-07-28T09:28:33.252Z,957.49
2016-07-28T09:29:22.338Z,957.49
2016-07-28T09:30:28.202Z,957.49
2016-07-28T09:31:18.121Z,957.49
2016-07-28T09:32:18.735Z,957.50
2016-07-28T09:33:19.383Z,957.50
2016-07-28T09:34:22.427Z,957.45
2016-07-28T09:35:24.056Z,957.43
2016-07-28T09:36:29.172Z,957.41
2016-07-28T09:37:33.462Z,957.40
2016-07-28T09:38:18.080Z,957.44
2016-07-28T09:39:23.260Z,957.38
2016-07-28T09:40:18.319Z,957.40
2016-07-28T09:44:24.971Z,957.34
2016-07-28T09:45:22.640Z,957.36
2016-07-28T09:46:22.641Z,957.32
2016-07-28T09:47:23.301Z,957.35
2016-07-28T09:48:29.814Z,957.33
2016-07-28T09:49:25.788Z,957.34
2016-07-28T09:50:19.589Z,957.29
2016-07-28T09:51:28.967Z,957.29
2016-07-28T09:52:17.192Z,957.30
2016-07-28T09:53:25.443Z,957.28
2016-07-28T09:55:17.588Z,957.31
2016-07-28T09:56:17.996Z,957.30
2016-07-28T09:57:27.376Z,957.32
2016-07-28T09:59:26.076Z,957.31
2016-07-28T10:00:24.607Z,957.30
2016-07-28T10:01:16.356Z,957.25
2016-07-28T10:02:19.613Z,957.32
2016-07-28T10:03:31.053Z,957.29
2016-07-28T10:05:23.455Z,957.26
2016-07-28T10:06:25.309Z,957.26
2016-07-28T10:07:17.879Z,957.22
2016-07-28T10:08:26.536Z,957.20
2016-07-28T10:09:17.352Z,957.23
2016-07-28T10:10:23.770Z,957.20
2016-07-28T10:11:18.060Z,957.21
2016-07-28T10:12:29.555Z,957.20
2016-07-28T10:13:22.399Z,957.14
2016-07-28T10:14:25.178Z,957.17
2016-07-28T10:15:24.750Z,957.15
2016-07-28T10:16:18.096Z,957.11
2016-07-28T10:17:22.397Z,957.09
2016-07-28T10:18:28.287Z,957.10
2016-07-28T10:19:31.404Z,957.11
2016-07-28T10:20:23.435Z,957.10
2016-07-28T10:21:20.090Z,957.11
2016-07-28T10:22:22.915Z,957.11
2016-07-28T10:23:17.781Z,957.10
2016-07-28T10:24:17.499Z,957.07
2016-07-28T10:25:16.922Z,957.09
2016-07-28T10:26:24.223Z,957.08
2016-07-28T10:27:36.156Z,957.09
2016-07-28T10:29:27.280Z,957.04
2016-07-28T10:30:30.248Z,957.02
2016-07-28T10:31:29.129Z,957.04
2016-07-28T10:34:20.179Z,957.00
2016-07-28T10:35:23.377Z,956.95
2016-07-28T10:36:22.310Z,957.03
2016-07-28T10:38:23.420Z,956.99
2016-07-28T10:39:19.272Z,957.00
2016-07-28T10:40:31.228Z,957.00
2016-07-28T10:41:24.689Z,957.00
2016-07-28T10:42:25.795Z,956.96
2016-07-28T10:44:17.763Z,956.94
2016-07-28T10:45:16.996Z,956.94
2016-07-28T10:46:22.270Z,956.95
2016-07-28T10:47:17.805Z,956.95
2016-07-28T10:48:29.690Z,956.98
2016-07-28T10:49:13.748Z,956.88
2016-07-28T10:50:17.023Z,956.88
2016-07-28T10:52:23.018Z,956.94
2016-07-28T10:53:28.627Z,956.90
2016-07-28T10:54:23.828Z,956.95
2016-07-28T10:55:18.459Z,956.90
2016-07-28T10:56:25.396Z,956.92
2016-07-28T10:57:27.794Z,956.94
2016-07-28T10:58:25.839Z,956.88
2016-07-28T10:59:31.856Z,956.88
2016-07-28T11:00:18.982Z,956.88
2016-07-28T11:01:28.550Z,956.87
2016-07-28T11:02:18.131Z,956.85
2016-07-28T11:03:18.073Z,956.90
2016-07-28T11:04:22.464Z,956.86
2016-07-28T11:05:18.755Z,956.83
2016-07-28T11:06:18.073Z,956.90
2016-07-28T11:07:42.954Z,956.89
2016-07-28T11:08:28.601Z,956.83
2016-07-28T11:09:30.846Z,956.89
2016-07-28T11:10:17.751Z,956.85
2016-07-28T11:11:29.801Z,956.85
2016-07-28T11:12:26.945Z,956.85
2016-07-28T11:13:19.583Z,956.85
2016-07-28T11:14:24.810Z,956.82
2016-07-28T11:17:29.263Z,956.81
2016-07-28T11:18:25.155Z,956.79
2016-07-28T11:19:24.431Z,956.79
2016-07-28T11:20:27.020Z,956.76
2016-07-28T11:21:23.015Z,956.81
2016-07-28T11:22:23.739Z,956.80
2016-07-28T11:23:36.182Z,956.79
2016-07-28T11:24:23.245Z,956.79
2016-07-28T11:25:18.856Z,956.77
2016-07-28T11:26:21.999Z,956.79
2016-07-28T11:27:18.579Z,956.79
2016-07-28T11:28:18.662Z,956.81
2016-07-28T11:29:25.480Z,956.78
2016-07-28T11:31:25.003Z,956.72
2016-07-28T11:32:26.934Z,956.76
2016-07-28T11:33:23.024Z,956.70
2016-07-28T11:34:22.937Z,956.73
2016-07-28T11:35:39.456Z,956.70
2016-07-28T11:36:30.083Z,956.71
2016-07-28T11:37:34.643Z,956.73
2016-07-28T11:38:24.171Z,956.68
2016-07-28T11:39:18.121Z,956.73
2016-07-28T11:40:31.224Z,956.72
2016-07-28T11:41:32.972Z,956.69
2016-07-28T11:42:17.518Z,956.70
2016-07-28T11:43:18.150Z,956.71
2016-07-28T11:44:25.262Z,956.67
2016-07-28T11:45:17.892Z,956.68
2016-07-28T11:46:25.628Z,956.68
2016-07-28T11:47:25.182Z,956.67
2016-07-28T11:48:22.008Z,956.72
2016-07-28T11:49:27.837Z,956.73
2016-07-28T11:50:22.160Z,956.68
2016-07-28T11:51:41.997Z,956.68
2016-07-28T11:52:22.463Z,956.69
2016-07-28T11:53:22.015Z,956.68
2016-07-28T11:54:28.935Z,956.66
2016-07-28T11:55:22.937Z,956.64
2016-07-28T11:56:28.236Z,956.64
2016-07-28T11:57:18.165Z,956.60
2016-07-28T11:58:17.877Z,956.60
2016-07-28T11:59:26.424Z,956.60
2016-07-28T12:01:39.965Z,956.59
2016-07-28T12:02:15.438Z,956.60
2016-07-28T12:04:22.893Z,956.57
2016-07-28T12:05:23.905Z,956.53
2016-07-28T12:08:18.311Z,956.52
2016-07-28T12:10:19.706Z,956.55
2016-07-28T12:11:27.834Z,956.49
2016-07-28T12:12:27.485Z,956.46
2016-07-28T12:13:33.667Z,956.41
2016-07-28T12:16:18.375Z,956.39
2016-07-28T12:17:18.049Z,956.40
2016-07-28T12:18:17.937Z,956.40
2016-07-28T12:19:28.634Z,956.42
2016-07-28T12:20:29.306Z,956.42
2016-07-28T12:21:13.415Z,956.40
2016-07-28T12:22:29.743Z,956.42
2016-07-28T12:23:18.790Z,956.42
2016-07-28T12:24:22.946Z,956.40
2016-07-28T12:25:23.429Z,956.39
2016-07-28T12:26:29.253Z,956.39
2016-07-28T12:27:19.674Z,956.34
2016-07-28T12:28:23.857Z,956.34
2016-07-28T12:29:29.910Z,956.33
2016-07-28T12:30:18.499Z,956.32
2016-07-28T12:31:22.970Z,956.29
2016-07-28T12:32:18.360Z,956.30
2016-07-28T12:33:22.220Z,956.30
2016-07-28T12:34:34.492Z,956.28
2016-07-28T12:36:26.815Z,956.34
2016-07-28T12:37:18.630Z,956.30
2016-07-28T12:38:28.968Z,956.30
2016-07-28T12:39:35.099Z,956.30
2016-07-28T12:40:42.299Z,956.29
2016-07-28T12:42:29.307Z,956.27
2016-07-28T12:43:28.288Z,956.26
2016-07-28T12:44:23.087Z,956.28
2016-07-28T12:45:17.783Z,956.23
2016-07-28T12:46:32.848Z,956.25
2016-07-28T12:47:25.423Z,956.22
2016-07-28T12:48:28.658Z,956.22
2016-07-28T12:49:18.863Z,956.22
2016-07-28T12:50:20.978Z,956.20
2016-07-28T12:51:24.457Z,956.19
2016-07-28T12:52:42.972Z,956.22
2016-07-28T12:53:25.327Z,956.19
2016-07-28T12:54:19.308Z,956.18
2016-07-28T12:55:26.429Z,956.17
2016-07-28T12:56:27.419Z,956.15
2016-07-28T12:57:20.152Z,956.12
2016-07-28T12:58:21.273Z,956.12
2016-07-28T12:59:20.531Z,956.12
2016-07-28T13:00:23.406Z,956.08
2016-07-28T13:01:43.569Z,956.11
2016-07-28T13:02:18.959Z,956.14
2016-07-28T13:03:19.499Z,956.12
2016-07-28T13:04:19.448Z,956.12
2016-07-28T13:05:31.448Z,956.13
2016-07-28T13:06:38.838Z,956.14
2016-07-28T13:08:29.683Z,956.07
2016-07-28T13:09:23.346Z,956.08
2016-07-28T13:10:23.949Z,956.07
2016-07-28T13:11:27.435Z,956.09
2016-07-28T13:12:22.550Z,956.10
2016-07-28T13:13:24.590Z,956.10
2016-07-28T13:14:21.522Z,956.11
2016-07-28T13:15:25.558Z,956.08
2016-07-28T13:16:28.764Z,956.03
2016-07-28T13:17:17.906Z,956.02
2016-07-28T13:18:23.719Z,956.05
2016-07-28T13:19:23.114Z,956.01
2016-07-28T13:20:23.007Z,956.04
2016-07-28T13:21:17.474Z,955.97
2016-07-28T13:22:34.343Z,956.00
2016-07-28T13:23:19.585Z,955.96
2016-07-28T13:25:31.034Z,955.93
2016-07-28T13:26:29.101Z,955.96
2016-07-28T13:27:33.022Z,955.96
2016-07-28T13:28:34.118Z,956.00
2016-07-28T13:29:24.411Z,955.98
2016-07-28T13:31:34.046Z,956.02
2016-07-28T13:32:29.735Z,956.00
2016-07-28T13:34:18.745Z,956.01
2016-07-28T13:35:18.210Z,956.05
2016-07-28T13:36:25.568Z,956.08
2016-07-28T13:37:38.596Z,956.03
2016-07-28T13:38:23.465Z,956.05
2016-07-28T13:39:18.061Z,956.00
2016-07-28T13:41:31.075Z,956.00
2016-07-28T13:42:29.073Z,955.98
2016-07-28T13:44:25.973Z,955.95
2016-07-28T13:45:22.828Z,955.99
2016-07-28T13:46:24.270Z,955.97
2016-07-28T13:47:21.739Z,955.89
2016-07-28T13:48:23.487Z,955.92
2016-07-28T13:49:21.371Z,955.91
2016-07-28T13:50:18.713Z,955.88
2016-07-28T13:51:18.358Z,955.87
2016-07-28T13:52:24.742Z,955.82
2016-07-28T13:53:17.679Z,955.83
2016-07-28T13:54:25.208Z,955.79
2016-07-28T13:56:25.599Z,955.72
2016-07-28T13:57:37.041Z,955.80
2016-07-28T13:59:33.980Z,955.73
2016-07-28T14:03:29.251Z,955.80
2016-07-28T14:04:26.487Z,955.71
2016-07-28T14:05:33.622Z,955.74
2016-07-28T14:06:18.083Z,955.65
2016-07-28T14:07:19.250Z,955.70
2016-07-28T14:08:18.403Z,955.67
2016-07-28T14:09:20.863Z,955.68
2016-07-28T14:10:17.542Z,955.69